Coffee Springs, Alabama
Current Conditions -  °F | °C
As of 6:15 PM on Sunday 23 Nov 2014 (Local Time) from KEDN Reporting Station
Clear Clear  
Wind Chill: 61°   Ceiling: Unl
Heat Index: 61°   Visibility: 10mi
Dew Point: 61°   Wind: 3mph
Humidity: 100%   Direction: 210°SSW
Pressure: 29.75"   Gusts: NA
Location:  31.16°N, 85.91°W
Report Text: KEDN 240015Z AUTO 21003KT 10SM CLR 16/16 A2975 RMK AO2 LTG DSNT W
Loading
Personal Weather Stations






























Interactive Weather Map New forecast layout! Learn more

10-Day Weather Forecast

Advertisements
Track Severe Weather on mobile